Ensenada, Mexico

12:29 AM PST on December 10, 2016 (GMT -0800)
PROTECCION CIVIL BC (ENSENADA) | | Change Station

Elev 69 ft 31.87 °N, 116.62 °W | Updated 1 minute ago

Partly Cloudy
Partly Cloudy
55.3 °F
Feels Like 55.3 °F
N
0.0
Wind Variable Wind from ENE
Gusts 0.0 mph

Today
High -- | Low -- °F
--% Chance of Precip.
Yesterday
High -- | Low -- °F
Precip. -- in
Pressure 30.18 in
Visibility 7.0 miles
Clouds Overcast 1200 ft
Dew Point 52 °F
Humidity 87%
Rainfall 0.00 in
Snow Depth Not available.
6:36 AM 4:42 PM
Waxing Gibbous, 81% visible
METAR KSDM 100753Z AUTO 00000KT 7SM OVC012 13/12 A3019 RMK AO2 SLP220 T01330122 401940078
Pressure 30.18 in
Visibility 7.0 miles
Clouds Overcast 1200 ft
Dew Point 52 °F
Humidity 87%
Rainfall 0.00 in
Snow Depth Not available.
6:36 AM 4:42 PM
Waxing Gibbous, 81% visible
METAR KSDM 100753Z AUTO 00000KT 7SM OVC012 13/12 A3019 RMK AO2 SLP220 T01330122 401940078

10-Day Weather Forecast

No radar image for this location.
×

Almanac

Astronomy

Dec. 10, 2016 Rise Set
Actual Time
Civil Twilight
Nautical Twilight
Astronomical Twilight
Moon
Length of Visible Light
Length of Day
Tomorrow will be .
, % of the Moon is Illuminated

Today's Extremes

Country Highs Country Lows

Community

WunderPhotos

Upload Photos

1,956,538 photos uploaded!

WunderBlog® & News

Nearby

Air Quality

  Air Quality AQ Index Pollutant
Not available.

Snow Depth

Station Depth Elevation

Earthquake Activity

City Distance Mag. Time & Date
Minimum magnitude displayed is 2.5.

Coastal Water Temperatures

Place Temperature

Stations

Nearby Weather Stations

Station Location Temp. Windchill Dew Point Humidity Wind Precip. Elev Updated Type